sensor_id;sensor_type;location;lat;lon;timestamp;P1;durP1;ratioP1;P2;durP2;ratioP2
22070;SDS011;11200;51.488;6.668;2023-01-19T00:02:17;10.55;;;8.43;;
22070;SDS011;11200;51.488;6.668;2023-01-19T00:04:43;9.35;;;8.02;;
22070;SDS011;11200;51.488;6.668;2023-01-19T00:07:09;12.23;;;8.85;;
22070;SDS011;11200;51.488;6.668;2023-01-19T00:09:35;9.57;;;8.55;;
22070;SDS011;11200;51.488;6.668;2023-01-19T00:12:02;11.48;;;8.35;;
22070;SDS011;11200;51.488;6.668;2023-01-19T00:14:28;11.68;;;8.88;;
22070;SDS011;11200;51.488;6.668;2023-01-19T00:16:54;13.20;;;8.85;;
22070;SDS011;11200;51.488;6.668;2023-01-19T00:19:19;10.43;;;8.75;;
22070;SDS011;11200;51.488;6.668;2023-01-19T00:21:45;12.07;;;9.00;;
22070;SDS011;11200;51.488;6.668;2023-01-19T00:24:11;10.70;;;8.55;;
22070;SDS011;11200;51.488;6.668;2023-01-19T00:26:37;12.50;;;9.25;;
22070;SDS011;11200;51.488;6.668;2023-01-19T00:29:04;10.40;;;8.35;;
22070;SDS011;11200;51.488;6.668;2023-01-19T00:31:32;10.77;;;8.77;;
22070;SDS011;11200;51.488;6.668;2023-01-19T00:33:58;9.25;;;7.90;;
22070;SDS011;11200;51.488;6.668;2023-01-19T00:36:24;12.20;;;8.50;;
22070;SDS011;11200;51.488;6.668;2023-01-19T00:38:50;10.63;;;9.05;;
22070;SDS011;11200;51.488;6.668;2023-01-19T00:41:15;12.05;;;8.85;;
22070;SDS011;11200;51.488;6.668;2023-01-19T00:43:41;11.10;;;8.82;;
22070;SDS011;11200;51.488;6.668;2023-01-19T00:46:07;11.73;;;9.00;;
22070;SDS011;11200;51.488;6.668;2023-01-19T00:48:32;11.25;;;9.10;;
22070;SDS011;11200;51.488;6.668;2023-01-19T00:50:58;10.48;;;8.68;;
22070;SDS011;11200;51.488;6.668;2023-01-19T00:53:24;10.98;;;9.05;;
22070;SDS011;11200;51.488;6.668;2023-01-19T00:55:50;12.07;;;9.43;;
22070;SDS011;11200;51.488;6.668;2023-01-19T00:58:15;12.23;;;9.32;;
22070;SDS011;11200;51.488;6.668;2023-01-19T01:00:41;12.57;;;9.63;;
22070;SDS011;11200;51.488;6.668;2023-01-19T01:03:07;10.55;;;9.35;;
22070;SDS011;11200;51.488;6.668;2023-01-19T01:05:33;11.02;;;9.07;;
22070;SDS011;11200;51.488;6.668;2023-01-19T01:07:59;10.40;;;9.25;;
22070;SDS011;11200;51.488;6.668;2023-01-19T01:10:26;10.25;;;8.70;;
22070;SDS011;11200;51.488;6.668;2023-01-19T01:12:53;10.38;;;9.20;;
22070;SDS011;11200;51.488;6.668;2023-01-19T01:15:19;11.68;;;9.25;;
22070;SDS011;11200;51.488;6.668;2023-01-19T01:17:45;10.98;;;9.40;;
22070;SDS011;11200;51.488;6.668;2023-01-19T01:20:22;11.43;;;9.35;;
22070;SDS011;11200;51.488;6.668;2023-01-19T01:22:51;12.10;;;10.05;;
22070;SDS011;11200;51.488;6.668;2023-01-19T01:25:19;12.32;;;9.63;;
22070;SDS011;11200;51.488;6.668;2023-01-19T01:27:46;11.75;;;9.30;;
22070;SDS011;11200;51.488;6.668;2023-01-19T01:30:13;12.30;;;9.82;;
22070;SDS011;11200;51.488;6.668;2023-01-19T01:32:39;13.57;;;9.63;;
22070;SDS011;11200;51.488;6.668;2023-01-19T01:35:05;11.70;;;9.20;;
22070;SDS011;11200;51.488;6.668;2023-01-19T01:37:33;12.55;;;9.40;;
22070;SDS011;11200;51.488;6.668;2023-01-19T01:39:59;11.43;;;9.18;;
22070;SDS011;11200;51.488;6.668;2023-01-19T01:42:28;11.93;;;9.82;;
22070;SDS011;11200;51.488;6.668;2023-01-19T01:44:56;12.80;;;9.68;;
22070;SDS011;11200;51.488;6.668;2023-01-19T01:47:31;11.98;;;9.48;;
22070;SDS011;11200;51.488;6.668;2023-01-19T01:50:13;11.77;;;9.30;;
22070;SDS011;11200;51.488;6.668;2023-01-19T01:52:45;13.18;;;10.05;;
22070;SDS011;11200;51.488;6.668;2023-01-19T01:55:16;11.45;;;9.63;;
22070;SDS011;11200;51.488;6.668;2023-01-19T01:57:46;11.80;;;9.65;;
22070;SDS011;11200;51.488;6.668;2023-01-19T02:00:15;14.02;;;9.45;;
22070;SDS011;11200;51.488;6.668;2023-01-19T02:02:41;12.32;;;10.05;;
22070;SDS011;11200;51.488;6.668;2023-01-19T02:11:00;12.52;;;10.55;;
22070;SDS011;11200;51.488;6.668;2023-01-19T02:13:45;13.63;;;10.55;;
22070;SDS011;11200;51.488;6.668;2023-01-19T02:16:11;11.77;;;10.00;;
22070;SDS011;11200;51.488;6.668;2023-01-19T02:18:38;12.18;;;10.18;;
22070;SDS011;11200;51.488;6.668;2023-01-19T02:23:53;12.35;;;9.80;;
22070;SDS011;11200;51.488;6.668;2023-01-19T02:26:21;12.43;;;9.60;;
22070;SDS011;11200;51.488;6.668;2023-01-19T02:28:50;13.07;;;9.90;;
22070;SDS011;11200;51.488;6.668;2023-01-19T02:31:21;11.85;;;10.23;;
22070;SDS011;11200;51.488;6.668;2023-01-19T02:33:47;12.07;;;9.63;;
22070;SDS011;11200;51.488;6.668;2023-01-19T02:36:13;11.63;;;9.82;;
22070;SDS011;11200;51.488;6.668;2023-01-19T02:38:40;12.48;;;9.98;;
22070;SDS011;11200;51.488;6.668;2023-01-19T02:41:11;11.70;;;9.90;;
22070;SDS011;11200;51.488;6.668;2023-01-19T02:43:39;12.20;;;9.90;;
22070;SDS011;11200;51.488;6.668;2023-01-19T02:46:06;11.57;;;9.73;;
22070;SDS011;11200;51.488;6.668;2023-01-19T02:48:32;12.27;;;9.88;;
22070;SDS011;11200;51.488;6.668;2023-01-19T02:50:59;13.02;;;10.10;;
22070;SDS011;11200;51.488;6.668;2023-01-19T02:58:47;11.32;;;9.18;;
22070;SDS011;11200;51.488;6.668;2023-01-19T03:07:10;12.63;;;9.18;;
22070;SDS011;11200;51.488;6.668;2023-01-19T03:12:34;11.68;;;9.73;;
22070;SDS011;11200;51.488;6.668;2023-01-19T03:15:21;11.50;;;9.52;;
22070;SDS011;11200;51.488;6.668;2023-01-19T03:17:52;12.00;;;9.48;;
22070;SDS011;11200;51.488;6.668;2023-01-19T03:20:20;12.10;;;9.68;;
22070;SDS011;11200;51.488;6.668;2023-01-19T03:22:49;13.98;;;10.20;;
22070;SDS011;11200;51.488;6.668;2023-01-19T03:25:19;12.88;;;9.95;;
22070;SDS011;11200;51.488;6.668;2023-01-19T03:27:47;12.10;;;9.70;;
22070;SDS011;11200;51.488;6.668;2023-01-19T03:30:16;12.52;;;9.82;;
22070;SDS011;11200;51.488;6.668;2023-01-19T03:32:49;13.10;;;9.80;;
22070;SDS011;11200;51.488;6.668;2023-01-19T03:35:20;12.95;;;10.50;;
22070;SDS011;11200;51.488;6.668;2023-01-19T03:37:49;13.05;;;9.75;;
22070;SDS011;11200;51.488;6.668;2023-01-19T03:40:18;13.82;;;10.32;;
22070;SDS011;11200;51.488;6.668;2023-01-19T03:42:45;12.02;;;10.25;;
22070;SDS011;11200;51.488;6.668;2023-01-19T03:45:13;13.93;;;10.10;;
22070;SDS011;11200;51.488;6.668;2023-01-19T03:47:39;12.40;;;10.43;;
22070;SDS011;11200;51.488;6.668;2023-01-19T03:50:06;13.00;;;10.43;;
22070;SDS011;11200;51.488;6.668;2023-01-19T03:52:37;14.00;;;10.68;;
22070;SDS011;11200;51.488;6.668;2023-01-19T03:55:03;11.95;;;10.35;;
22070;SDS011;11200;51.488;6.668;2023-01-19T03:57:30;13.50;;;10.05;;
22070;SDS011;11200;51.488;6.668;2023-01-19T03:59:56;12.95;;;10.27;;
22070;SDS011;11200;51.488;6.668;2023-01-19T04:02:22;14.57;;;10.30;;
22070;SDS011;11200;51.488;6.668;2023-01-19T04:04:48;14.30;;;10.75;;
22070;SDS011;11200;51.488;6.668;2023-01-19T04:07:14;13.85;;;10.30;;
22070;SDS011;11200;51.488;6.668;2023-01-19T04:09:39;13.43;;;10.02;;
22070;SDS011;11200;51.488;6.668;2023-01-19T04:12:05;12.30;;;10.05;;
22070;SDS011;11200;51.488;6.668;2023-01-19T04:14:31;14.35;;;11.18;;
22070;SDS011;11200;51.488;6.668;2023-01-19T04:16:57;14.18;;;10.88;;
22070;SDS011;11200;51.488;6.668;2023-01-19T04:19:22;12.80;;;10.00;;
22070;SDS011;11200;51.488;6.668;2023-01-19T04:21:48;15.35;;;10.20;;
22070;SDS011;11200;51.488;6.668;2023-01-19T04:24:14;15.57;;;11.48;;
22070;SDS011;11200;51.488;6.668;2023-01-19T04:26:40;15.45;;;10.43;;
22070;SDS011;11200;51.488;6.668;2023-01-19T04:29:06;13.88;;;10.60;;
22070;SDS011;11200;51.488;6.668;2023-01-19T04:31:32;13.35;;;10.30;;
22070;SDS011;11200;51.488;6.668;2023-01-19T04:33:59;13.73;;;11.23;;
22070;SDS011;11200;51.488;6.668;2023-01-19T04:36:25;13.18;;;10.57;;
22070;SDS011;11200;51.488;6.668;2023-01-19T04:38:52;13.40;;;10.50;;
22070;SDS011;11200;51.488;6.668;2023-01-19T04:41:17;14.27;;;10.73;;
22070;SDS011;11200;51.488;6.668;2023-01-19T04:43:43;14.35;;;11.02;;
22070;SDS011;11200;51.488;6.668;2023-01-19T04:46:12;15.45;;;11.27;;
22070;SDS011;11200;51.488;6.668;2023-01-19T04:48:38;14.38;;;11.38;;
22070;SDS011;11200;51.488;6.668;2023-01-19T04:51:04;13.88;;;10.93;;
22070;SDS011;11200;51.488;6.668;2023-01-19T04:53:30;13.70;;;11.35;;
22070;SDS011;11200;51.488;6.668;2023-01-19T04:55:55;16.15;;;11.90;;
22070;SDS011;11200;51.488;6.668;2023-01-19T04:58:21;13.10;;;10.20;;
22070;SDS011;11200;51.488;6.668;2023-01-19T05:00:47;16.48;;;11.30;;
22070;SDS011;11200;51.488;6.668;2023-01-19T05:03:12;13.82;;;10.57;;
22070;SDS011;11200;51.488;6.668;2023-01-19T05:05:38;14.05;;;11.07;;
22070;SDS011;11200;51.488;6.668;2023-01-19T05:08:04;14.80;;;10.95;;
22070;SDS011;11200;51.488;6.668;2023-01-19T05:10:29;14.13;;;10.70;;
22070;SDS011;11200;51.488;6.668;2023-01-19T05:12:55;14.55;;;10.55;;
22070;SDS011;11200;51.488;6.668;2023-01-19T05:15:20;13.25;;;10.52;;
22070;SDS011;11200;51.488;6.668;2023-01-19T05:17:46;14.63;;;11.02;;
22070;SDS011;11200;51.488;6.668;2023-01-19T05:20:12;14.45;;;9.90;;
22070;SDS011;11200;51.488;6.668;2023-01-19T05:22:38;13.07;;;10.18;;
22070;SDS011;11200;51.488;6.668;2023-01-19T05:25:05;13.50;;;9.98;;
22070;SDS011;11200;51.488;6.668;2023-01-19T05:27:32;11.70;;;9.50;;
22070;SDS011;11200;51.488;6.668;2023-01-19T05:30:02;12.18;;;9.52;;
22070;SDS011;11200;51.488;6.668;2023-01-19T05:32:29;12.30;;;9.70;;
22070;SDS011;11200;51.488;6.668;2023-01-19T05:34:55;12.40;;;9.93;;
22070;SDS011;11200;51.488;6.668;2023-01-19T05:37:20;11.63;;;9.00;;
22070;SDS011;11200;51.488;6.668;2023-01-19T05:39:49;11.13;;;8.98;;
22070;SDS011;11200;51.488;6.668;2023-01-19T05:42:14;11.27;;;8.82;;
22070;SDS011;11200;51.488;6.668;2023-01-19T05:44:44;11.90;;;9.40;;
22070;SDS011;11200;51.488;6.668;2023-01-19T05:47:09;11.75;;;9.40;;
22070;SDS011;11200;51.488;6.668;2023-01-19T05:49:35;10.90;;;8.75;;
22070;SDS011;11200;51.488;6.668;2023-01-19T05:52:12;11.05;;;9.02;;
22070;SDS011;11200;51.488;6.668;2023-01-19T05:54:38;11.88;;;8.90;;
22070;SDS011;11200;51.488;6.668;2023-01-19T05:57:13;10.95;;;8.90;;
22070;SDS011;11200;51.488;6.668;2023-01-19T05:59:39;9.88;;;8.07;;
22070;SDS011;11200;51.488;6.668;2023-01-19T06:02:05;9.20;;;7.38;;
22070;SDS011;11200;51.488;6.668;2023-01-19T06:04:30;8.77;;;7.50;;
22070;SDS011;11200;51.488;6.668;2023-01-19T06:06:56;10.20;;;8.18;;
22070;SDS011;11200;51.488;6.668;2023-01-19T06:09:22;10.00;;;7.65;;
22070;SDS011;11200;51.488;6.668;2023-01-19T06:11:47;10.43;;;8.35;;
22070;SDS011;11200;51.488;6.668;2023-01-19T06:14:13;10.43;;;6.88;;
22070;SDS011;11200;51.488;6.668;2023-01-19T06:16:38;9.07;;;7.68;;
22070;SDS011;11200;51.488;6.668;2023-01-19T06:19:04;8.80;;;7.45;;
22070;SDS011;11200;51.488;6.668;2023-01-19T06:21:30;8.38;;;6.82;;
22070;SDS011;11200;51.488;6.668;2023-01-19T06:23:56;8.15;;;6.13;;
22070;SDS011;11200;51.488;6.668;2023-01-19T06:26:22;8.05;;;6.82;;
22070;SDS011;11200;51.488;6.668;2023-01-19T06:28:49;8.85;;;7.13;;
22070;SDS011;11200;51.488;6.668;2023-01-19T06:31:15;8.93;;;7.05;;
22070;SDS011;11200;51.488;6.668;2023-01-19T06:33:41;7.97;;;6.57;;
22070;SDS011;11200;51.488;6.668;2023-01-19T06:36:07;7.38;;;6.43;;
22070;SDS011;11200;51.488;6.668;2023-01-19T06:38:33;8.10;;;6.88;;
22070;SDS011;11200;51.488;6.668;2023-01-19T06:40:59;7.57;;;6.28;;
22070;SDS011;11200;51.488;6.668;2023-01-19T06:43:28;7.05;;;6.10;;
22070;SDS011;11200;51.488;6.668;2023-01-19T06:45:55;7.18;;;6.20;;
22070;SDS011;11200;51.488;6.668;2023-01-19T06:48:21;7.90;;;6.18;;
22070;SDS011;11200;51.488;6.668;2023-01-19T06:50:47;6.47;;;5.63;;
22070;SDS011;11200;51.488;6.668;2023-01-19T06:53:14;6.95;;;5.75;;
22070;SDS011;11200;51.488;6.668;2023-01-19T06:55:44;7.10;;;5.95;;
22070;SDS011;11200;51.488;6.668;2023-01-19T06:58:10;7.35;;;5.97;;
22070;SDS011;11200;51.488;6.668;2023-01-19T07:00:39;7.35;;;5.60;;
22070;SDS011;11200;51.488;6.668;2023-01-19T07:03:05;6.57;;;5.75;;
22070;SDS011;11200;51.488;6.668;2023-01-19T07:05:32;6.60;;;5.50;;
22070;SDS011;11200;51.488;6.668;2023-01-19T07:07:59;8.05;;;6.30;;
22070;SDS011;11200;51.488;6.668;2023-01-19T07:10:25;6.70;;;5.43;;
22070;SDS011;11200;51.488;6.668;2023-01-19T07:12:51;7.03;;;5.70;;
22070;SDS011;11200;51.488;6.668;2023-01-19T07:15:17;6.93;;;5.50;;
22070;SDS011;11200;51.488;6.668;2023-01-19T07:17:43;6.72;;;5.68;;
22070;SDS011;11200;51.488;6.668;2023-01-19T07:20:10;6.10;;;5.47;;
22070;SDS011;11200;51.488;6.668;2023-01-19T07:22:38;6.70;;;5.68;;
22070;SDS011;11200;51.488;6.668;2023-01-19T07:25:05;6.43;;;5.70;;
22070;SDS011;11200;51.488;6.668;2023-01-19T07:27:31;6.13;;;5.40;;
22070;SDS011;11200;51.488;6.668;2023-01-19T07:29:57;6.00;;;5.40;;
22070;SDS011;11200;51.488;6.668;2023-01-19T07:32:26;6.07;;;5.47;;
22070;SDS011;11200;51.488;6.668;2023-01-19T07:34:52;6.60;;;5.72;;
22070;SDS011;11200;51.488;6.668;2023-01-19T07:37:18;7.45;;;5.85;;
22070;SDS011;11200;51.488;6.668;2023-01-19T07:39:44;8.30;;;6.43;;
22070;SDS011;11200;51.488;6.668;2023-01-19T07:42:09;8.18;;;6.57;;
22070;SDS011;11200;51.488;6.668;2023-01-19T07:44:35;6.53;;;5.80;;
22070;SDS011;11200;51.488;6.668;2023-01-19T07:47:01;7.45;;;6.43;;
22070;SDS011;11200;51.488;6.668;2023-01-19T07:49:30;7.85;;;6.38;;
22070;SDS011;11200;51.488;6.668;2023-01-19T07:51:55;8.23;;;6.40;;
22070;SDS011;11200;51.488;6.668;2023-01-19T07:54:21;8.80;;;6.43;;
22070;SDS011;11200;51.488;6.668;2023-01-19T07:56:52;7.57;;;6.60;;
22070;SDS011;11200;51.488;6.668;2023-01-19T07:59:18;7.60;;;6.25;;
22070;SDS011;11200;51.488;6.668;2023-01-19T08:01:44;7.68;;;6.55;;
22070;SDS011;11200;51.488;6.668;2023-01-19T08:04:10;8.90;;;6.93;;
22070;SDS011;11200;51.488;6.668;2023-01-19T08:06:36;7.78;;;6.75;;
22070;SDS011;11200;51.488;6.668;2023-01-19T08:09:03;7.85;;;6.20;;
22070;SDS011;11200;51.488;6.668;2023-01-19T08:11:30;9.18;;;6.65;;
22070;SDS011;11200;51.488;6.668;2023-01-19T08:13:57;7.78;;;6.30;;
22070;SDS011;11200;51.488;6.668;2023-01-19T08:16:24;8.63;;;6.70;;
22070;SDS011;11200;51.488;6.668;2023-01-19T08:18:49;7.63;;;6.45;;
22070;SDS011;11200;51.488;6.668;2023-01-19T08:21:15;7.88;;;6.70;;
22070;SDS011;11200;51.488;6.668;2023-01-19T08:23:41;8.45;;;6.80;;
22070;SDS011;11200;51.488;6.668;2023-01-19T08:26:20;8.05;;;6.78;;
22070;SDS011;11200;51.488;6.668;2023-01-19T08:28:51;9.57;;;7.43;;
22070;SDS011;11200;51.488;6.668;2023-01-19T08:31:18;7.95;;;6.40;;
22070;SDS011;11200;51.488;6.668;2023-01-19T08:33:44;8.20;;;7.03;;
22070;SDS011;11200;51.488;6.668;2023-01-19T08:36:09;7.85;;;6.28;;
22070;SDS011;11200;51.488;6.668;2023-01-19T08:38:35;8.70;;;7.18;;
22070;SDS011;11200;51.488;6.668;2023-01-19T08:41:03;8.55;;;7.38;;
22070;SDS011;11200;51.488;6.668;2023-01-19T08:43:29;8.43;;;7.53;;
22070;SDS011;11200;51.488;6.668;2023-01-19T08:45:54;7.88;;;6.68;;
22070;SDS011;11200;51.488;6.668;2023-01-19T08:48:21;8.98;;;7.68;;
22070;SDS011;11200;51.488;6.668;2023-01-19T08:50:47;9.45;;;8.13;;
22070;SDS011;11200;51.488;6.668;2023-01-19T08:53:14;9.77;;;7.72;;
22070;SDS011;11200;51.488;6.668;2023-01-19T08:55:40;9.10;;;7.78;;
22070;SDS011;11200;51.488;6.668;2023-01-19T08:58:06;7.95;;;7.15;;
22070;SDS011;11200;51.488;6.668;2023-01-19T09:00:36;9.35;;;7.72;;
22070;SDS011;11200;51.488;6.668;2023-01-19T09:03:03;9.32;;;7.88;;
22070;SDS011;11200;51.488;6.668;2023-01-19T09:05:30;10.15;;;8.00;;
22070;SDS011;11200;51.488;6.668;2023-01-19T09:07:59;8.75;;;7.38;;
22070;SDS011;11200;51.488;6.668;2023-01-19T09:10:26;9.10;;;8.07;;
22070;SDS011;11200;51.488;6.668;2023-01-19T09:12:55;10.00;;;8.35;;
22070;SDS011;11200;51.488;6.668;2023-01-19T09:15:21;10.48;;;8.18;;
22070;SDS011;11200;51.488;6.668;2023-01-19T09:17:47;10.10;;;8.38;;
22070;SDS011;11200;51.488;6.668;2023-01-19T09:20:13;9.77;;;7.70;;
22070;SDS011;11200;51.488;6.668;2023-01-19T09:22:38;10.77;;;8.30;;
22070;SDS011;11200;51.488;6.668;2023-01-19T09:25:05;10.48;;;8.40;;
22070;SDS011;11200;51.488;6.668;2023-01-19T09:27:31;9.63;;;8.63;;
22070;SDS011;11200;51.488;6.668;2023-01-19T09:29:57;9.45;;;8.45;;
22070;SDS011;11200;51.488;6.668;2023-01-19T09:32:23;9.63;;;8.38;;
22070;SDS011;11200;51.488;6.668;2023-01-19T09:34:51;10.43;;;8.80;;
22070;SDS011;11200;51.488;6.668;2023-01-19T09:37:19;10.95;;;9.05;;
22070;SDS011;11200;51.488;6.668;2023-01-19T09:39:44;9.93;;;8.88;;
22070;SDS011;11200;51.488;6.668;2023-01-19T09:42:17;10.07;;;8.73;;
22070;SDS011;11200;51.488;6.668;2023-01-19T09:45:04;11.43;;;8.82;;
22070;SDS011;11200;51.488;6.668;2023-01-19T09:47:34;10.25;;;9.07;;
22070;SDS011;11200;51.488;6.668;2023-01-19T09:50:03;12.65;;;9.30;;
22070;SDS011;11200;51.488;6.668;2023-01-19T09:52:34;11.02;;;9.35;;
22070;SDS011;11200;51.488;6.668;2023-01-19T09:55:07;12.18;;;8.98;;
22070;SDS011;11200;51.488;6.668;2023-01-19T09:57:47;11.52;;;9.27;;
22070;SDS011;11200;51.488;6.668;2023-01-19T10:00:16;11.50;;;9.38;;
22070;SDS011;11200;51.488;6.668;2023-01-19T10:02:52;11.10;;;9.20;;
22070;SDS011;11200;51.488;6.668;2023-01-19T10:10:26;13.40;;;10.60;;
22070;SDS011;11200;51.488;6.668;2023-01-19T10:20:49;16.55;;;11.32;;
22070;SDS011;11200;51.488;6.668;2023-01-19T10:23:33;15.02;;;11.48;;
22070;SDS011;11200;51.488;6.668;2023-01-19T10:26:07;15.82;;;11.93;;
22070;SDS011;11200;51.488;6.668;2023-01-19T10:28:36;14.95;;;12.15;;
22070;SDS011;11200;51.488;6.668;2023-01-19T10:31:04;16.90;;;11.88;;
22070;SDS011;11200;51.488;6.668;2023-01-19T10:33:32;16.60;;;12.13;;
22070;SDS011;11200;51.488;6.668;2023-01-19T10:36:01;16.92;;;11.88;;
22070;SDS011;11200;51.488;6.668;2023-01-19T10:38:28;19.48;;;13.63;;
22070;SDS011;11200;51.488;6.668;2023-01-19T10:40:57;20.25;;;12.98;;
22070;SDS011;11200;51.488;6.668;2023-01-19T10:43:35;19.17;;;13.32;;
22070;SDS011;11200;51.488;6.668;2023-01-19T10:46:06;17.45;;;13.27;;
22070;SDS011;11200;51.488;6.668;2023-01-19T10:48:41;18.02;;;13.73;;
22070;SDS011;11200;51.488;6.668;2023-01-19T10:51:08;17.88;;;12.82;;
22070;SDS011;11200;51.488;6.668;2023-01-19T10:53:34;18.80;;;13.13;;
22070;SDS011;11200;51.488;6.668;2023-01-19T10:56:11;18.88;;;13.00;;
22070;SDS011;11200;51.488;6.668;2023-01-19T10:58:40;16.45;;;12.68;;
22070;SDS011;11200;51.488;6.668;2023-01-19T11:01:14;19.92;;;13.18;;
22070;SDS011;11200;51.488;6.668;2023-01-19T11:03:50;17.25;;;12.70;;
22070;SDS011;11200;51.488;6.668;2023-01-19T11:06:22;16.85;;;12.82;;
22070;SDS011;11200;51.488;6.668;2023-01-19T11:08:50;17.70;;;12.70;;
22070;SDS011;11200;51.488;6.668;2023-01-19T11:11:17;17.95;;;13.25;;
22070;SDS011;11200;51.488;6.668;2023-01-19T11:13:46;19.77;;;13.23;;
22070;SDS011;11200;51.488;6.668;2023-01-19T11:16:28;18.98;;;13.18;;
22070;SDS011;11200;51.488;6.668;2023-01-19T11:18:55;19.98;;;13.80;;
22070;SDS011;11200;51.488;6.668;2023-01-19T11:21:25;18.35;;;13.82;;
22070;SDS011;11200;51.488;6.668;2023-01-19T11:23:53;21.48;;;14.77;;
22070;SDS011;11200;51.488;6.668;2023-01-19T11:26:31;21.50;;;14.95;;
22070;SDS011;11200;51.488;6.668;2023-01-19T11:29:03;20.77;;;14.23;;
22070;SDS011;11200;51.488;6.668;2023-01-19T11:35:03;19.30;;;14.15;;
22070;SDS011;11200;51.488;6.668;2023-01-19T11:38:39;21.98;;;14.43;;
22070;SDS011;11200;51.488;6.668;2023-01-19T11:40:54;23.88;;;15.13;;
22070;SDS011;11200;51.488;6.668;2023-01-19T11:43:22;22.05;;;14.90;;
22070;SDS011;11200;51.488;6.668;2023-01-19T11:45:49;23.02;;;15.18;;
22070;SDS011;11200;51.488;6.668;2023-01-19T11:48:21;26.65;;;16.00;;
22070;SDS011;11200;51.488;6.668;2023-01-19T11:50:58;21.33;;;16.02;;
22070;SDS011;11200;51.488;6.668;2023-01-19T11:53:29;24.02;;;16.23;;
22070;SDS011;11200;51.488;6.668;2023-01-19T11:56:01;21.63;;;15.80;;
22070;SDS011;11200;51.488;6.668;2023-01-19T11:58:41;22.73;;;15.88;;
22070;SDS011;11200;51.488;6.668;2023-01-19T12:01:23;22.88;;;15.93;;
22070;SDS011;11200;51.488;6.668;2023-01-19T12:06:30;25.52;;;16.42;;
22070;SDS011;11200;51.488;6.668;2023-01-19T12:09:11;23.13;;;16.50;;
22070;SDS011;11200;51.488;6.668;2023-01-19T12:11:54;24.30;;;16.35;;
22070;SDS011;11200;51.488;6.668;2023-01-19T12:14:27;25.67;;;16.50;;
22070;SDS011;11200;51.488;6.668;2023-01-19T12:16:59;20.88;;;15.93;;
22070;SDS011;11200;51.488;6.668;2023-01-19T12:19:32;24.38;;;16.75;;
22070;SDS011;11200;51.488;6.668;2023-01-19T12:22:07;21.63;;;15.43;;
22070;SDS011;11200;51.488;6.668;2023-01-19T12:24:40;22.38;;;15.73;;
22070;SDS011;11200;51.488;6.668;2023-01-19T12:27:38;26.45;;;16.90;;
22070;SDS011;11200;51.488;6.668;2023-01-19T12:30:24;21.77;;;16.15;;
22070;SDS011;11200;51.488;6.668;2023-01-19T12:33:18;22.20;;;16.88;;
22070;SDS011;11200;51.488;6.668;2023-01-19T12:35:58;22.25;;;15.93;;
22070;SDS011;11200;51.488;6.668;2023-01-19T12:38:33;23.73;;;16.42;;
22070;SDS011;11200;51.488;6.668;2023-01-19T12:41:16;25.52;;;17.00;;
22070;SDS011;11200;51.488;6.668;2023-01-19T12:43:47;23.20;;;16.27;;
22070;SDS011;11200;51.488;6.668;2023-01-19T12:57:38;26.35;;;17.73;;
22070;SDS011;11200;51.488;6.668;2023-01-19T13:02:52;23.88;;;16.08;;
22070;SDS011;11200;51.488;6.668;2023-01-19T13:15:55;24.45;;;16.27;;
22070;SDS011;11200;51.488;6.668;2023-01-19T13:18:42;22.88;;;16.13;;
22070;SDS011;11200;51.488;6.668;2023-01-19T13:21:13;23.85;;;15.90;;
22070;SDS011;11200;51.488;6.668;2023-01-19T13:24:16;23.83;;;15.55;;
22070;SDS011;11200;51.488;6.668;2023-01-19T13:29:18;22.40;;;16.00;;
22070;SDS011;11200;51.488;6.668;2023-01-19T13:31:47;22.90;;;16.30;;
22070;SDS011;11200;51.488;6.668;2023-01-19T13:34:15;23.95;;;17.08;;
22070;SDS011;11200;51.488;6.668;2023-01-19T13:36:43;21.65;;;15.98;;
22070;SDS011;11200;51.488;6.668;2023-01-19T13:41:53;20.35;;;14.40;;
22070;SDS011;11200;51.488;6.668;2023-01-19T13:44:24;20.92;;;14.90;;
22070;SDS011;11200;51.488;6.668;2023-01-19T13:46:53;22.25;;;15.23;;
22070;SDS011;11200;51.488;6.668;2023-01-19T13:49:28;19.92;;;14.88;;
22070;SDS011;11200;51.488;6.668;2023-01-19T13:54:49;20.35;;;14.45;;
22070;SDS011;11200;51.488;6.668;2023-01-19T14:02:40;19.73;;;14.05;;
22070;SDS011;11200;51.488;6.668;2023-01-19T14:07:43;22.42;;;14.88;;
22070;SDS011;11200;51.488;6.668;2023-01-19T14:10:13;20.95;;;14.70;;
22070;SDS011;11200;51.488;6.668;2023-01-19T14:12:40;21.67;;;14.13;;
22070;SDS011;11200;51.488;6.668;2023-01-19T14:15:12;22.88;;;14.98;;
22070;SDS011;11200;51.488;6.668;2023-01-19T14:17:41;21.70;;;14.32;;
22070;SDS011;11200;51.488;6.668;2023-01-19T14:20:26;19.55;;;14.25;;
22070;SDS011;11200;51.488;6.668;2023-01-19T14:26:06;22.65;;;14.18;;
22070;SDS011;11200;51.488;6.668;2023-01-19T14:31:45;18.02;;;13.70;;
22070;SDS011;11200;51.488;6.668;2023-01-19T14:34:33;21.00;;;14.27;;
22070;SDS011;11200;51.488;6.668;2023-01-19T14:42:52;18.67;;;12.93;;
22070;SDS011;11200;51.488;6.668;2023-01-19T14:45:17;18.60;;;12.80;;
22070;SDS011;11200;51.488;6.668;2023-01-19T14:50:32;19.65;;;13.40;;
22070;SDS011;11200;51.488;6.668;2023-01-19T14:53:11;19.35;;;13.30;;
22070;SDS011;11200;51.488;6.668;2023-01-19T14:55:53;21.65;;;13.10;;
22070;SDS011;11200;51.488;6.668;2023-01-19T14:58:20;18.60;;;13.02;;
22070;SDS011;11200;51.488;6.668;2023-01-19T15:00:49;18.17;;;12.40;;
22070;SDS011;11200;51.488;6.668;2023-01-19T15:03:15;18.92;;;12.65;;
22070;SDS011;11200;51.488;6.668;2023-01-19T15:05:41;17.42;;;11.55;;
22070;SDS011;11200;51.488;6.668;2023-01-19T15:08:11;17.27;;;12.70;;
22070;SDS011;11200;51.488;6.668;2023-01-19T15:10:40;17.98;;;12.55;;
22070;SDS011;11200;51.488;6.668;2023-01-19T15:13:08;17.25;;;12.13;;
22070;SDS011;11200;51.488;6.668;2023-01-19T15:15:41;16.40;;;12.32;;
22070;SDS011;11200;51.488;6.668;2023-01-19T15:18:08;19.88;;;12.57;;
22070;SDS011;11200;51.488;6.668;2023-01-19T15:20:40;19.98;;;12.60;;
22070;SDS011;11200;51.488;6.668;2023-01-19T15:26:28;17.08;;;12.00;;
22070;SDS011;11200;51.488;6.668;2023-01-19T15:29:02;18.40;;;12.38;;
22070;SDS011;11200;51.488;6.668;2023-01-19T15:55:11;16.88;;;11.30;;
22070;SDS011;11200;51.488;6.668;2023-01-19T15:57:45;14.65;;;11.18;;
22070;SDS011;11200;51.488;6.668;2023-01-19T16:00:36;18.23;;;11.70;;
22070;SDS011;11200;51.488;6.668;2023-01-19T16:03:08;16.85;;;11.40;;
22070;SDS011;11200;51.488;6.668;2023-01-19T16:06:10;16.60;;;11.77;;
22070;SDS011;11200;51.488;6.668;2023-01-19T16:09:02;14.52;;;10.40;;
22070;SDS011;11200;51.488;6.668;2023-01-19T16:18:18;15.93;;;10.93;;
22070;SDS011;11200;51.488;6.668;2023-01-19T16:21:11;16.13;;;10.73;;
22070;SDS011;11200;51.488;6.668;2023-01-19T16:23:42;16.55;;;10.68;;
22070;SDS011;11200;51.488;6.668;2023-01-19T16:30:09;14.70;;;10.30;;
22070;SDS011;11200;51.488;6.668;2023-01-19T16:32:48;15.50;;;10.43;;
22070;SDS011;11200;51.488;6.668;2023-01-19T16:35:14;13.55;;;10.10;;
22070;SDS011;11200;51.488;6.668;2023-01-19T16:40:48;16.23;;;10.70;;
22070;SDS011;11200;51.488;6.668;2023-01-19T16:43:19;16.15;;;10.70;;
22070;SDS011;11200;51.488;6.668;2023-01-19T16:49:30;14.52;;;10.65;;
22070;SDS011;11200;51.488;6.668;2023-01-19T16:55:47;17.88;;;11.00;;
22070;SDS011;11200;51.488;6.668;2023-01-19T16:58:42;17.27;;;11.43;;
22070;SDS011;11200;51.488;6.668;2023-01-19T17:04:38;17.17;;;11.68;;
22070;SDS011;11200;51.488;6.668;2023-01-19T17:10:43;16.30;;;11.32;;
22070;SDS011;11200;51.488;6.668;2023-01-19T17:20:43;17.90;;;11.43;;
22070;SDS011;11200;51.488;6.668;2023-01-19T17:23:09;18.38;;;11.57;;
22070;SDS011;11200;51.488;6.668;2023-01-19T17:25:34;17.88;;;11.73;;